ADDS METAR Data INFO
IDs: Format: Raw Decoded Include TAF

Data at: 1303 UTC 11 Dec 2017

PASK 111256Z AUTO 02011KT 10SM OVC100 M06/M08 A2936 RMK AO2 SLP939 T10611078 FZRANO $
PASK 111229Z AUTO 03014KT 10SM SCT024 BKN040 OVC100 M06/M08 A2937 RMK AO2 FZRANO $
PASK 111156Z AUTO 03013KT 10SM BKN024 OVC030 M06/M08 A2940 RMK AO2 SLP952 T10611078 11056 21072 56034 FZRANO $
PASK 111149Z AUTO 04012KT 10SM BKN026 OVC032 M06/M08 A2940 RMK AO2 FZRANO $
PASK 111056Z AUTO 03013KT 10SM OVC032 M06/M08 A2942 RMK AO2 SLP961 T10611078 FZRANO $
PASK 111027Z AUTO 03012KT 10SM OVC030 M07/M08 A2944 RMK AO2 FZRANO $
PASK 110956Z AUTO 04011KT 10SM FEW018 BKN023 OVC028 M07/M08 A2946 RMK AO2 SLP974 T10671083 FZRANO $
PASK 110909Z AUTO 05010KT 10SM BKN016 OVC027 M07/M08 A2949 RMK AO2 FZRANO $
PASK 110856Z AUTO 05014KT 10SM BKN014 OVC027 M07/M08 A2950 RMK AO2 SLP985 T10671083 410671100 58035 FZRANO $
PASK 110756Z AUTO 07009KT 10SM OVC014 M07/M09 A2954 RMK AO2 SLP001 T10721089 FZRANO $
PASK 110656Z AUTO 06011KT 10SM OVC014 M07/M09 A2957 RMK AO2 SLP010 T10721089 FZRANO $
PASK 110638Z AUTO 06011KT 10SM OVC014 M07/M09 A2957 RMK AO2 FZRANO $
PASK 110556Z AUTO 06011KT 10SM OVC018 M07/M09 A2960 RMK AO2 SNE02 SLP020 P0000 60000 T10721094 11072 21089 58026 FZRANO $
PASK 110456Z AUTO 02005KT 8SM -SN OVC018 M08/M09 A2962 RMK AO2 SNB18 SLP027 P0000 T10781094 FZRANO $
PASK 110356Z AUTO 00000KT 10SM OVC020 M08/M10 A2966 RMK AO2 UPB19E28SNB10E19 SLP040 P0000 T10831100 FZRANO $
PASK 110256Z AUTO 00000KT 10SM OVC026 M08/M10 A2967 RMK AO2 SLP046 T10831100 56012 FZRANO $
PASK 110156Z AUTO 33003KT 10SM OVC028 M08/M11 A2968 RMK AO2 SLP049 T10831106 FZRANO $
PASK 110127Z AUTO 00000KT 10SM OVC028 M08/M11 A2969 RMK AO2 FZRANO $
PASK 110056Z AUTO 32004KT 10SM OVC030 M08/M11 A2969 RMK AO2 SLP052 T10831106 FZRANO $
PASK 102356Z AUTO 33003KT 10SM OVC032 M09/M11 A2971 RMK AO2 SLP058 T10891111 58010 FZRANO $
PASK 102256Z AUTO 35004KT 10SM OVC032 M09/M11 A2972 RMK AO2 SLP062 T10891111 FZRANO $
PASK 102156Z AUTO 26003KT 10SM OVC030 M09/M11 A2974 RMK AO2 SLP067 T10891106 FZRANO $
PASK 102056Z AUTO 00000KT 10SM OVC026 M09/M11 A2974 RMK AO2 SLP068 T10891111 58003 FZRANO $
PASK 101956Z AUTO 32004KT 10SM OVC020 M09/M11 A2975 RMK AO2 SLP070 T10891111 FZRANO $
PASK 101856Z AUTO 34003KT 10SM OVC018 M09/M11 A2975 RMK AO2 SLP071 T10891111 FZRANO $
PASK 101756Z AUTO 26003KT 10SM OVC018 M09/M11 A2975 RMK AO2 SLP072 T10891111 11089 21094 58006 FZRANO $
PASK 101656Z AUTO 00000KT 10SM OVC018 M09/M11 A2976 RMK AO2 SLP075 T10941111 FZRANO $
PASK 101556Z AUTO 00000KT 10SM OVC018 M09/M12 A2977 RMK AO2 SLP077 T10941117 FZRANO $
PASK 101456Z AUTO 00000KT 10SM OVC018 M09/M12 A2977 RMK AO2 SLP078 T10941117 56011 FZRANO $
PASK 101356Z AUTO 00000KT 10SM OVC018 M09/M12 A2978 RMK AO2 SLP081 T10941117 FZRANO $
PASK 101311Z AUTO 00000KT 10SM OVC016 M09/M12 A2979 RMK AO2 FZRANO $
PASK 101256Z AUTO 00000KT 10SM OVC014 M09/M12 A2979 RMK AO2 SLP085 T10941117 FZRANO $
PASK 101208Z AUTO 36004KT 10SM OVC014 M09/M11 A2980 RMK AO2 FZRANO $
PASK 101156Z AUTO 34003KT 10SM OVC016 M09/M11 A2980 RMK AO2 SLP089 T10941111 11094 21100 58005 FZRANO $
PASK 101133Z AUTO 35004KT 10SM OVC016 M09/M11 A2981 RMK AO2 FZRANO $
PASK 101056Z AUTO 34004KT 10SM OVC014 M09/M12 A2982 RMK AO2 SLP094 T10941117 FZRANO $
PASK 101040Z AUTO 00000KT 10SM OVC014 M10/M12 A2982 RMK AO2 FZRANO $
PASK 101004Z AUTO 32003KT 10SM OVC016 M10/M12 A2981 RMK AO2 FZRANO $
PASK 100956Z AUTO 33004KT 10SM OVC014 M10/M12 A2981 RMK AO2 SLP093 T11001117 FZRANO $
PASK 100932Z AUTO 32003KT 10SM OVC016 M10/M12 A2982 RMK AO2 FZRANO $
PASK 100856Z AUTO 00000KT 10SM OVC014 M10/M12 A2983 RMK AO2 SLP098 T11001117 410611100 55006 FZRANO $
PASK 100756Z AUTO 35005KT 10SM OVC012 M10/M12 A2983 RMK AO2 SLP097 T11001117 FZRANO $
PASK 100656Z AUTO 33003KT 10SM OVC014 M10/M12 A2983 RMK AO2 SLP099 T11001117 FZRANO $
PASK 100556Z AUTO 34003KT 10SM OVC016 M10/M11 A2985 RMK AO2 SLP104 T11001111 11083 21100 57012 FZRANO $
PASK 100456Z AUTO 00000KT 9SM OVC016 M10/M11 A2986 RMK AO2 SLP108 T11001111 FZRANO $
PASK 100356Z AUTO 35003KT 10SM SCT014 OVC020 M10/M11 A2987 RMK AO2 SLP111 T11001111 FZRANO $
PASK 100256Z AUTO 36006KT 10SM OVC012 M09/M11 A2988 RMK AO2 SLP115 T10891106 56006 FZRANO $
PASK 100156Z AUTO 34003KT 10SM OVC014 M09/M11 A2988 RMK AO2 SLP115 T10941111 FZRANO $